sensor_id;sensor_type;location;lat;lon;timestamp;temperature;humidity
63966;DHT22;50151;52.030;5.350;2023-09-19T08:08:40;15.40;99.90
63966;DHT22;50151;52.030;5.350;2023-09-19T08:11:07;15.50;99.90
63966;DHT22;50151;52.030;5.350;2023-09-19T08:13:47;15.50;99.90
63966;DHT22;50151;52.030;5.350;2023-09-19T08:16:16;15.50;99.90
63966;DHT22;50151;52.030;5.350;2023-09-19T08:18:48;15.60;99.90
63966;DHT22;50151;52.030;5.350;2023-09-19T08:21:14;15.70;99.90
63966;DHT22;50151;52.030;5.350;2023-09-19T08:23:43;15.80;99.90
63966;DHT22;50151;52.030;5.350;2023-09-19T08:26:11;15.70;99.90
63966;DHT22;50151;52.030;5.350;2023-09-19T08:28:37;15.80;99.90
63966;DHT22;50151;52.030;5.350;2023-09-19T08:31:08;15.80;99.90
63966;DHT22;50151;52.030;5.350;2023-09-19T08:33:36;15.90;99.90
63966;DHT22;50151;52.030;5.350;2023-09-19T08:36:04;15.90;99.90
63966;DHT22;50151;52.030;5.350;2023-09-19T08:38:33;15.90;99.90
63966;DHT22;50151;52.030;5.350;2023-09-19T08:41:00;16.00;99.90
63966;DHT22;50151;52.030;5.350;2023-09-19T08:43:27;16.00;99.90
63966;DHT22;50151;52.030;5.350;2023-09-19T08:46:10;16.10;99.90
63966;DHT22;50151;52.030;5.350;2023-09-19T08:48:53;16.20;99.90
63966;DHT22;50151;52.030;5.350;2023-09-19T08:51:33;16.30;99.90
63966;DHT22;50151;52.030;5.350;2023-09-19T08:54:06;16.30;99.90
63966;DHT22;50151;52.030;5.350;2023-09-19T08:56:33;16.30;99.90
63966;DHT22;50151;52.030;5.350;2023-09-19T08:59:03;16.30;99.90
63966;DHT22;50151;52.030;5.350;2023-09-19T09:01:31;16.30;99.90
63966;DHT22;50151;52.030;5.350;2023-09-19T09:03:59;16.50;99.90
63966;DHT22;50151;52.030;5.350;2023-09-19T09:06:26;16.60;99.90
63966;DHT22;50151;52.030;5.350;2023-09-19T09:08:55;16.80;99.90
63966;DHT22;50151;52.030;5.350;2023-09-19T09:11:22;16.80;99.90
63966;DHT22;50151;52.030;5.350;2023-09-19T09:13:54;16.90;99.90
63966;DHT22;50151;52.030;5.350;2023-09-19T09:16:21;16.90;99.90
63966;DHT22;50151;52.030;5.350;2023-09-19T09:18:52;16.90;99.90
63966;DHT22;50151;52.030;5.350;2023-09-19T09:21:22;16.80;99.90
63966;DHT22;50151;52.030;5.350;2023-09-19T09:23:51;16.90;99.90
63966;DHT22;50151;52.030;5.350;2023-09-19T09:26:40;17.10;99.90
63966;DHT22;50151;52.030;5.350;2023-09-19T09:29:07;17.10;99.90
63966;DHT22;50151;52.030;5.350;2023-09-19T09:31:34;17.10;99.90
63966;DHT22;50151;52.030;5.350;2023-09-19T09:34:01;17.20;99.90
63966;DHT22;50151;52.030;5.350;2023-09-19T09:36:35;17.40;99.90
63966;DHT22;50151;52.030;5.350;2023-09-19T09:39:03;17.50;99.90
63966;DHT22;50151;52.030;5.350;2023-09-19T09:41:43;17.60;99.90
63966;DHT22;50151;52.030;5.350;2023-09-19T09:44:14;17.80;99.90
63966;DHT22;50151;52.030;5.350;2023-09-19T09:46:46;17.70;99.90
63966;DHT22;50151;52.030;5.350;2023-09-19T09:49:23;17.50;99.90
63966;DHT22;50151;52.030;5.350;2023-09-19T09:52:03;17.50;99.90
63966;DHT22;50151;52.030;5.350;2023-09-19T09:54:37;17.50;99.90
63966;DHT22;50151;52.030;5.350;2023-09-19T09:57:09;17.70;99.90
63966;DHT22;50151;52.030;5.350;2023-09-19T09:59:52;18.00;99.90
63966;DHT22;50151;52.030;5.350;2023-09-19T10:02:25;18.20;99.90
63966;DHT22;50151;52.030;5.350;2023-09-19T10:04:56;18.20;99.90
63966;DHT22;50151;52.030;5.350;2023-09-19T10:07:32;18.30;99.90
63966;DHT22;50151;52.030;5.350;2023-09-19T10:10:01;18.30;99.90
63966;DHT22;50151;52.030;5.350;2023-09-19T10:12:44;18.40;99.90
63966;DHT22;50151;52.030;5.350;2023-09-19T10:15:16;18.40;99.90
63966;DHT22;50151;52.030;5.350;2023-09-19T10:17:44;18.20;99.90
63966;DHT22;50151;52.030;5.350;2023-09-19T10:20:16;18.10;99.90
63966;DHT22;50151;52.030;5.350;2023-09-19T10:23:05;18.00;99.90
63966;DHT22;50151;52.030;5.350;2023-09-19T10:25:42;18.00;99.90
63966;DHT22;50151;52.030;5.350;2023-09-19T10:28:11;18.10;99.90
63966;DHT22;50151;52.030;5.350;2023-09-19T10:30:43;18.00;99.90
63966;DHT22;50151;52.030;5.350;2023-09-19T10:33:13;18.20;99.90
63966;DHT22;50151;52.030;5.350;2023-09-19T10:35:43;18.40;99.90
63966;DHT22;50151;52.030;5.350;2023-09-19T10:38:12;18.40;99.90
63966;DHT22;50151;52.030;5.350;2023-09-19T10:40:39;18.40;99.90
63966;DHT22;50151;52.030;5.350;2023-09-19T10:43:16;18.50;99.90
63966;DHT22;50151;52.030;5.350;2023-09-19T10:45:47;18.80;99.90
63966;DHT22;50151;52.030;5.350;2023-09-19T10:48:16;18.80;99.90
63966;DHT22;50151;52.030;5.350;2023-09-19T10:51:16;18.80;99.90
63966;DHT22;50151;52.030;5.350;2023-09-19T10:53:53;18.50;99.90
63966;DHT22;50151;52.030;5.350;2023-09-19T10:56:32;18.60;99.90
63966;DHT22;50151;52.030;5.350;2023-09-19T10:59:10;18.60;99.90
63966;DHT22;50151;52.030;5.350;2023-09-19T11:04:32;18.90;99.90
63966;DHT22;50151;52.030;5.350;2023-09-19T11:07:07;19.10;99.90
63966;DHT22;50151;52.030;5.350;2023-09-19T11:09:47;19.20;99.90
63966;DHT22;50151;52.030;5.350;2023-09-19T11:27:13;19.20;99.90
63966;DHT22;50151;52.030;5.350;2023-09-19T11:29:40;19.50;99.90
63966;DHT22;50151;52.030;5.350;2023-09-19T11:32:07;19.50;99.90
63966;DHT22;50151;52.030;5.350;2023-09-19T11:42:48;19.20;99.90
63966;DHT22;50151;52.030;5.350;2023-09-19T11:48:15;19.70;99.90
63966;DHT22;50151;52.030;5.350;2023-09-19T11:50:43;19.70;99.90
63966;DHT22;50151;52.030;5.350;2023-09-19T11:53:12;19.60;99.90
63966;DHT22;50151;52.030;5.350;2023-09-19T11:55:41;19.90;99.90
63966;DHT22;50151;52.030;5.350;2023-09-19T11:58:10;19.70;99.90
63966;DHT22;50151;52.030;5.350;2023-09-19T12:00:40;19.50;99.90
63966;DHT22;50151;52.030;5.350;2023-09-19T12:03:11;19.50;99.90
63966;DHT22;50151;52.030;5.350;2023-09-19T12:05:38;19.50;99.90
63966;DHT22;50151;52.030;5.350;2023-09-19T12:08:07;19.30;99.90
63966;DHT22;50151;52.030;5.350;2023-09-19T12:10:47;19.40;99.90
63966;DHT22;50151;52.030;5.350;2023-09-19T12:13:18;19.30;99.90
63966;DHT22;50151;52.030;5.350;2023-09-19T12:15:46;19.20;99.90
63966;DHT22;50151;52.030;5.350;2023-09-19T12:18:27;19.10;99.90
63966;DHT22;50151;52.030;5.350;2023-09-19T12:20:55;19.30;99.90
63966;DHT22;50151;52.030;5.350;2023-09-19T12:23:22;19.40;99.90
63966;DHT22;50151;52.030;5.350;2023-09-19T12:25:49;19.20;99.90
63966;DHT22;50151;52.030;5.350;2023-09-19T12:28:20;19.20;99.90
63966;DHT22;50151;52.030;5.350;2023-09-19T12:30:50;19.10;99.90
63966;DHT22;50151;52.030;5.350;2023-09-19T12:33:19;19.10;99.90
63966;DHT22;50151;52.030;5.350;2023-09-19T12:35:47;19.10;99.90
63966;DHT22;50151;52.030;5.350;2023-09-19T12:38:27;19.10;99.90
63966;DHT22;50151;52.030;5.350;2023-09-19T12:41:02;19.00;99.90
63966;DHT22;50151;52.030;5.350;2023-09-19T12:43:30;19.00;99.90
63966;DHT22;50151;52.030;5.350;2023-09-19T12:45:59;18.90;99.90
63966;DHT22;50151;52.030;5.350;2023-09-19T12:48:27;18.90;99.90
63966;DHT22;50151;52.030;5.350;2023-09-19T12:51:06;18.90;99.90
63966;DHT22;50151;52.030;5.350;2023-09-19T12:53:41;18.90;99.90
63966;DHT22;50151;52.030;5.350;2023-09-19T12:56:14;19.00;99.90
63966;DHT22;50151;52.030;5.350;2023-09-19T12:58:56;19.00;99.90
63966;DHT22;50151;52.030;5.350;2023-09-19T13:01:24;19.00;99.90
63966;DHT22;50151;52.030;5.350;2023-09-19T13:04:18;19.00;99.90
63966;DHT22;50151;52.030;5.350;2023-09-19T13:06:47;19.00;99.90
63966;DHT22;50151;52.030;5.350;2023-09-19T13:09:20;19.00;99.90
63966;DHT22;50151;52.030;5.350;2023-09-19T13:11:48;18.90;99.90
63966;DHT22;50151;52.030;5.350;2023-09-19T13:14:29;19.00;99.90
63966;DHT22;50151;52.030;5.350;2023-09-19T13:17:07;18.90;99.90
63966;DHT22;50151;52.030;5.350;2023-09-19T13:19:47;18.90;99.90
63966;DHT22;50151;52.030;5.350;2023-09-19T13:22:41;18.90;99.90
63966;DHT22;50151;52.030;5.350;2023-09-19T13:25:13;18.90;99.90
63966;DHT22;50151;52.030;5.350;2023-09-19T13:27:52;18.80;99.90
63966;DHT22;50151;52.030;5.350;2023-09-19T13:30:22;18.80;99.90
63966;DHT22;50151;52.030;5.350;2023-09-19T13:32:49;18.90;99.90
63966;DHT22;50151;52.030;5.350;2023-09-19T13:35:16;18.90;99.90
63966;DHT22;50151;52.030;5.350;2023-09-19T13:37:44;18.90;99.90
63966;DHT22;50151;52.030;5.350;2023-09-19T13:40:15;19.00;99.90
63966;DHT22;50151;52.030;5.350;2023-09-19T13:42:42;19.40;99.90
63966;DHT22;50151;52.030;5.350;2023-09-19T13:45:09;19.40;99.90
63966;DHT22;50151;52.030;5.350;2023-09-19T13:47:40;19.40;99.90
63966;DHT22;50151;52.030;5.350;2023-09-19T13:50:08;19.40;99.90
63966;DHT22;50151;52.030;5.350;2023-09-19T13:52:39;19.40;99.90
63966;DHT22;50151;52.030;5.350;2023-09-19T13:55:06;19.30;99.90
63966;DHT22;50151;52.030;5.350;2023-09-19T13:57:33;19.20;99.90
63966;DHT22;50151;52.030;5.350;2023-09-19T14:00:00;19.20;99.90
63966;DHT22;50151;52.030;5.350;2023-09-19T14:02:27;19.20;99.90
63966;DHT22;50151;52.030;5.350;2023-09-19T14:04:54;19.20;99.90
63966;DHT22;50151;52.030;5.350;2023-09-19T14:07:21;19.20;99.90
63966;DHT22;50151;52.030;5.350;2023-09-19T14:09:48;19.10;99.90
63966;DHT22;50151;52.030;5.350;2023-09-19T14:12:15;19.10;99.90
63966;DHT22;50151;52.030;5.350;2023-09-19T14:14:42;19.20;99.90
63966;DHT22;50151;52.030;5.350;2023-09-19T14:17:09;19.10;99.90
63966;DHT22;50151;52.030;5.350;2023-09-19T14:19:36;19.10;99.90
63966;DHT22;50151;52.030;5.350;2023-09-19T14:22:04;19.10;99.90
63966;DHT22;50151;52.030;5.350;2023-09-19T14:24:35;19.00;99.90
63966;DHT22;50151;52.030;5.350;2023-09-19T14:27:02;19.10;99.90
63966;DHT22;50151;52.030;5.350;2023-09-19T14:29:32;19.00;99.90
63966;DHT22;50151;52.030;5.350;2023-09-19T14:32:00;19.10;99.90
63966;DHT22;50151;52.030;5.350;2023-09-19T14:34:27;19.00;99.90
63966;DHT22;50151;52.030;5.350;2023-09-19T14:36:54;19.00;99.90
63966;DHT22;50151;52.030;5.350;2023-09-19T14:39:23;19.10;99.90
63966;DHT22;50151;52.030;5.350;2023-09-19T14:41:50;19.00;99.90
63966;DHT22;50151;52.030;5.350;2023-09-19T14:44:17;19.00;99.90
63966;DHT22;50151;52.030;5.350;2023-09-19T14:46:44;19.00;99.90
63966;DHT22;50151;52.030;5.350;2023-09-19T14:49:12;19.00;99.90
63966;DHT22;50151;52.030;5.350;2023-09-19T14:51:39;19.00;99.90
63966;DHT22;50151;52.030;5.350;2023-09-19T14:54:10;19.00;99.90
63966;DHT22;50151;52.030;5.350;2023-09-19T14:56:37;18.90;99.90
63966;DHT22;50151;52.030;5.350;2023-09-19T14:59:04;18.90;99.90
63966;DHT22;50151;52.030;5.350;2023-09-19T15:01:30;18.90;99.90
63966;DHT22;50151;52.030;5.350;2023-09-19T15:03:59;18.90;99.90
63966;DHT22;50151;52.030;5.350;2023-09-19T15:06:28;18.90;99.90
63966;DHT22;50151;52.030;5.350;2023-09-19T15:08:55;18.90;99.90
63966;DHT22;50151;52.030;5.350;2023-09-19T15:11:21;18.80;99.90
63966;DHT22;50151;52.030;5.350;2023-09-19T15:13:51;18.80;99.90
63966;DHT22;50151;52.030;5.350;2023-09-19T15:16:18;18.80;99.90
63966;DHT22;50151;52.030;5.350;2023-09-19T15:18:46;18.80;99.90
63966;DHT22;50151;52.030;5.350;2023-09-19T15:21:16;18.80;99.90
63966;DHT22;50151;52.030;5.350;2023-09-19T15:23:46;18.80;99.90
63966;DHT22;50151;52.030;5.350;2023-09-19T15:26:14;18.90;99.90
63966;DHT22;50151;52.030;5.350;2023-09-19T15:28:47;18.80;99.90
63966;DHT22;50151;52.030;5.350;2023-09-19T15:31:15;18.80;99.90
63966;DHT22;50151;52.030;5.350;2023-09-19T15:33:41;18.80;99.90
63966;DHT22;50151;52.030;5.350;2023-09-19T15:36:09;18.70;99.90
63966;DHT22;50151;52.030;5.350;2023-09-19T15:39:05;18.80;99.90
63966;DHT22;50151;52.030;5.350;2023-09-19T15:41:34;18.80;99.90
63966;DHT22;50151;52.030;5.350;2023-09-19T15:44:02;18.80;99.90
63966;DHT22;50151;52.030;5.350;2023-09-19T15:46:32;18.80;99.90
63966;DHT22;50151;52.030;5.350;2023-09-19T15:49:03;18.80;99.90
63966;DHT22;50151;52.030;5.350;2023-09-19T15:51:30;18.80;99.90
63966;DHT22;50151;52.030;5.350;2023-09-19T15:53:57;18.80;99.90
63966;DHT22;50151;52.030;5.350;2023-09-19T15:56:24;18.70;99.90
63966;DHT22;50151;52.030;5.350;2023-09-19T15:58:52;18.70;99.90
63966;DHT22;50151;52.030;5.350;2023-09-19T16:01:21;18.70;99.90
63966;DHT22;50151;52.030;5.350;2023-09-19T16:03:50;18.60;99.90
63966;DHT22;50151;52.030;5.350;2023-09-19T16:06:21;18.60;99.90
63966;DHT22;50151;52.030;5.350;2023-09-19T16:08:51;18.60;99.90
63966;DHT22;50151;52.030;5.350;2023-09-19T16:11:18;18.60;99.90
63966;DHT22;50151;52.030;5.350;2023-09-19T16:13:48;18.60;99.90
63966;DHT22;50151;52.030;5.350;2023-09-19T16:16:16;18.60;99.90
63966;DHT22;50151;52.030;5.350;2023-09-19T16:18:47;18.60;99.90
63966;DHT22;50151;52.030;5.350;2023-09-19T16:21:15;18.60;99.90
63966;DHT22;50151;52.030;5.350;2023-09-19T16:23:49;18.60;99.90
63966;DHT22;50151;52.030;5.350;2023-09-19T16:26:17;18.60;99.90
63966;DHT22;50151;52.030;5.350;2023-09-19T16:28:45;18.70;99.90
63966;DHT22;50151;52.030;5.350;2023-09-19T16:31:12;18.60;99.90
63966;DHT22;50151;52.030;5.350;2023-09-19T16:33:41;18.60;99.90
63966;DHT22;50151;52.030;5.350;2023-09-19T16:36:15;18.70;99.90
63966;DHT22;50151;52.030;5.350;2023-09-19T16:38:44;18.60;99.90
63966;DHT22;50151;52.030;5.350;2023-09-19T16:41:11;18.70;99.90
63966;DHT22;50151;52.030;5.350;2023-09-19T16:43:40;18.60;99.90
63966;DHT22;50151;52.030;5.350;2023-09-19T16:46:09;18.60;99.90
63966;DHT22;50151;52.030;5.350;2023-09-19T16:48:40;18.60;99.90
63966;DHT22;50151;52.030;5.350;2023-09-19T16:51:27;18.60;99.90
63966;DHT22;50151;52.030;5.350;2023-09-19T16:53:55;18.60;99.90
63966;DHT22;50151;52.030;5.350;2023-09-19T16:56:22;18.60;99.90
63966;DHT22;50151;52.030;5.350;2023-09-19T16:58:49;18.60;99.90
63966;DHT22;50151;52.030;5.350;2023-09-19T17:01:18;18.60;99.90
63966;DHT22;50151;52.030;5.350;2023-09-19T17:03:47;18.50;99.90
63966;DHT22;50151;52.030;5.350;2023-09-19T17:06:16;18.60;99.90
63966;DHT22;50151;52.030;5.350;2023-09-19T17:08:44;18.60;99.90
63966;DHT22;50151;52.030;5.350;2023-09-19T17:11:13;18.50;99.90
63966;DHT22;50151;52.030;5.350;2023-09-19T17:13:42;18.50;99.90
63966;DHT22;50151;52.030;5.350;2023-09-19T17:16:10;18.50;99.90
63966;DHT22;50151;52.030;5.350;2023-09-19T17:18:38;18.50;99.90
63966;DHT22;50151;52.030;5.350;2023-09-19T17:21:10;18.50;99.90
63966;DHT22;50151;52.030;5.350;2023-09-19T17:23:40;18.50;99.90
63966;DHT22;50151;52.030;5.350;2023-09-19T17:26:09;18.50;99.90
63966;DHT22;50151;52.030;5.350;2023-09-19T17:28:41;18.50;99.90
63966;DHT22;50151;52.030;5.350;2023-09-19T17:31:10;18.50;99.90
63966;DHT22;50151;52.030;5.350;2023-09-19T17:33:38;18.40;99.90
63966;DHT22;50151;52.030;5.350;2023-09-19T17:36:21;18.40;99.90
63966;DHT22;50151;52.030;5.350;2023-09-19T17:38:49;18.30;99.90
63966;DHT22;50151;52.030;5.350;2023-09-19T17:41:16;18.30;99.90
63966;DHT22;50151;52.030;5.350;2023-09-19T17:43:44;18.20;99.90
63966;DHT22;50151;52.030;5.350;2023-09-19T17:46:14;18.20;99.90
63966;DHT22;50151;52.030;5.350;2023-09-19T17:48:42;18.10;99.90
63966;DHT22;50151;52.030;5.350;2023-09-19T17:51:12;18.00;99.90
63966;DHT22;50151;52.030;5.350;2023-09-19T17:53:40;18.00;99.90
63966;DHT22;50151;52.030;5.350;2023-09-19T17:56:08;18.00;99.90
63966;DHT22;50151;52.030;5.350;2023-09-19T17:58:36;17.90;99.90
63966;DHT22;50151;52.030;5.350;2023-09-19T18:01:08;17.90;99.90
63966;DHT22;50151;52.030;5.350;2023-09-19T18:03:36;17.80;99.90
63966;DHT22;50151;52.030;5.350;2023-09-19T18:06:04;17.80;99.90
63966;DHT22;50151;52.030;5.350;2023-09-19T18:08:31;17.70;99.90
63966;DHT22;50151;52.030;5.350;2023-09-19T18:11:02;17.70;99.90
63966;DHT22;50151;52.030;5.350;2023-09-19T18:13:30;17.70;99.90
63966;DHT22;50151;52.030;5.350;2023-09-19T18:15:57;17.60;99.90
63966;DHT22;50151;52.030;5.350;2023-09-19T18:18:27;17.50;99.90
63966;DHT22;50151;52.030;5.350;2023-09-19T18:20:54;17.60;99.90
63966;DHT22;50151;52.030;5.350;2023-09-19T18:23:21;17.50;99.90
63966;DHT22;50151;52.030;5.350;2023-09-19T18:25:47;17.40;99.90
63966;DHT22;50151;52.030;5.350;2023-09-19T18:28:15;17.30;99.90
63966;DHT22;50151;52.030;5.350;2023-09-19T18:30:42;17.30;99.90
63966;DHT22;50151;52.030;5.350;2023-09-19T18:33:08;17.20;99.90
63966;DHT22;50151;52.030;5.350;2023-09-19T18:35:35;17.20;99.90
63966;DHT22;50151;52.030;5.350;2023-09-19T18:38:02;17.10;99.90
63966;DHT22;50151;52.030;5.350;2023-09-19T18:40:30;17.10;99.90
63966;DHT22;50151;52.030;5.350;2023-09-19T18:42:57;17.10;99.90
63966;DHT22;50151;52.030;5.350;2023-09-19T18:45:23;17.10;99.90
63966;DHT22;50151;52.030;5.350;2023-09-19T18:48:06;17.10;99.90
63966;DHT22;50151;52.030;5.350;2023-09-19T18:50:34;17.00;99.90
63966;DHT22;50151;52.030;5.350;2023-09-19T18:53:01;17.00;99.90
63966;DHT22;50151;52.030;5.350;2023-09-19T18:55:28;16.90;99.90
63966;DHT22;50151;52.030;5.350;2023-09-19T18:57:55;17.00;99.90
63966;DHT22;50151;52.030;5.350;2023-09-19T19:00:21;16.90;99.90
63966;DHT22;50151;52.030;5.350;2023-09-19T19:02:52;16.90;99.90
63966;DHT22;50151;52.030;5.350;2023-09-19T19:05:20;16.90;99.90
63966;DHT22;50151;52.030;5.350;2023-09-19T19:07:48;16.90;99.90
63966;DHT22;50151;52.030;5.350;2023-09-19T19:10:16;16.90;99.90
63966;DHT22;50151;52.030;5.350;2023-09-19T19:12:42;17.00;99.90
63966;DHT22;50151;52.030;5.350;2023-09-19T19:15:09;16.90;99.90
63966;DHT22;50151;52.030;5.350;2023-09-19T19:17:36;16.80;99.90
63966;DHT22;50151;52.030;5.350;2023-09-19T19:20:04;16.90;99.90
63966;DHT22;50151;52.030;5.350;2023-09-19T19:22:33;16.90;99.90
63966;DHT22;50151;52.030;5.350;2023-09-19T19:25:00;16.90;99.90
63966;DHT22;50151;52.030;5.350;2023-09-19T19:27:27;16.90;99.90
63966;DHT22;50151;52.030;5.350;2023-09-19T19:29:56;16.80;99.90
63966;DHT22;50151;52.030;5.350;2023-09-19T19:32:23;16.90;99.90
63966;DHT22;50151;52.030;5.350;2023-09-19T19:34:53;16.80;99.90
63966;DHT22;50151;52.030;5.350;2023-09-19T19:37:21;16.90;99.90
63966;DHT22;50151;52.030;5.350;2023-09-19T19:39:48;16.80;99.90
63966;DHT22;50151;52.030;5.350;2023-09-19T19:42:14;16.90;99.90
63966;DHT22;50151;52.030;5.350;2023-09-19T19:44:41;16.90;99.90
63966;DHT22;50151;52.030;5.350;2023-09-19T19:47:08;16.90;99.90
63966;DHT22;50151;52.030;5.350;2023-09-19T19:49:35;16.90;99.90
63966;DHT22;50151;52.030;5.350;2023-09-19T19:52:02;16.90;99.90
63966;DHT22;50151;52.030;5.350;2023-09-19T19:54:30;17.00;99.90
63966;DHT22;50151;52.030;5.350;2023-09-19T19:56:57;17.00;99.90
63966;DHT22;50151;52.030;5.350;2023-09-19T19:59:23;17.00;99.90
63966;DHT22;50151;52.030;5.350;2023-09-19T20:01:50;17.00;99.90
63966;DHT22;50151;52.030;5.350;2023-09-19T20:04:17;17.10;99.90
63966;DHT22;50151;52.030;5.350;2023-09-19T20:06:44;17.10;99.90
63966;DHT22;50151;52.030;5.350;2023-09-19T20:09:11;17.10;99.90
63966;DHT22;50151;52.030;5.350;2023-09-19T20:11:39;17.10;99.90
63966;DHT22;50151;52.030;5.350;2023-09-19T20:14:06;17.10;99.90
63966;DHT22;50151;52.030;5.350;2023-09-19T20:16:33;17.20;99.90
63966;DHT22;50151;52.030;5.350;2023-09-19T20:19:03;17.10;99.90
63966;DHT22;50151;52.030;5.350;2023-09-19T20:21:31;17.20;99.90
63966;DHT22;50151;52.030;5.350;2023-09-19T20:23:58;17.20;99.90
63966;DHT22;50151;52.030;5.350;2023-09-19T20:26:38;17.20;99.90
63966;DHT22;50151;52.030;5.350;2023-09-19T20:29:05;17.20;99.90
63966;DHT22;50151;52.030;5.350;2023-09-19T20:31:32;17.30;99.90
63966;DHT22;50151;52.030;5.350;2023-09-19T20:34:00;17.30;99.90
63966;DHT22;50151;52.030;5.350;2023-09-19T20:36:27;17.30;99.90
63966;DHT22;50151;52.030;5.350;2023-09-19T20:38:53;17.30;99.90
63966;DHT22;50151;52.030;5.350;2023-09-19T20:41:21;17.30;99.90
63966;DHT22;50151;52.030;5.350;2023-09-19T20:43:48;17.30;99.90
63966;DHT22;50151;52.030;5.350;2023-09-19T20:46:15;17.30;99.90
63966;DHT22;50151;52.030;5.350;2023-09-19T20:48:45;17.30;99.90
63966;DHT22;50151;52.030;5.350;2023-09-19T20:51:13;17.30;99.90
63966;DHT22;50151;52.030;5.350;2023-09-19T20:53:43;17.30;99.90
63966;DHT22;50151;52.030;5.350;2023-09-19T20:56:11;17.30;99.90
63966;DHT22;50151;52.030;5.350;2023-09-19T20:58:39;17.20;99.90
63966;DHT22;50151;52.030;5.350;2023-09-19T21:01:08;17.20;99.90
63966;DHT22;50151;52.030;5.350;2023-09-19T21:03:37;17.20;99.90
63966;DHT22;50151;52.030;5.350;2023-09-19T21:06:07;17.20;99.90
63966;DHT22;50151;52.030;5.350;2023-09-19T21:08:35;17.10;99.90
63966;DHT22;50151;52.030;5.350;2023-09-19T21:11:12;17.10;99.90
63966;DHT22;50151;52.030;5.350;2023-09-19T21:13:39;17.10;99.90
63966;DHT22;50151;52.030;5.350;2023-09-19T21:16:08;17.10;99.90
63966;DHT22;50151;52.030;5.350;2023-09-19T21:18:35;17.10;99.90
63966;DHT22;50151;52.030;5.350;2023-09-19T21:21:03;17.20;99.90
63966;DHT22;50151;52.030;5.350;2023-09-19T21:23:31;17.20;99.90
63966;DHT22;50151;52.030;5.350;2023-09-19T21:25:58;17.20;99.90
63966;DHT22;50151;52.030;5.350;2023-09-19T21:28:25;17.20;99.90
63966;DHT22;50151;52.030;5.350;2023-09-19T21:30:57;17.20;99.90
63966;DHT22;50151;52.030;5.350;2023-09-19T21:33:27;17.20;99.90
63966;DHT22;50151;52.030;5.350;2023-09-19T21:35:54;17.10;99.90
63966;DHT22;50151;52.030;5.350;2023-09-19T21:38:20;17.10;99.90
63966;DHT22;50151;52.030;5.350;2023-09-19T21:40:47;17.10;99.90
63966;DHT22;50151;52.030;5.350;2023-09-19T21:43:14;17.20;99.90
63966;DHT22;50151;52.030;5.350;2023-09-19T21:45:41;17.10;99.90
